Latest Weather Observations for Ernabella/Pukatja

IDD60801

Issued at 6:35 pm CST Friday 25 April 2014 (issued every 30 minutes, with the page automatically refreshed every 10 minutes)

About weather observations | Map of weather stations | Latest weather observations for NT | Other Formats
Station Details ID: 016097 Name: PUKATJA Lat: -26.26 Lon: 132.18 Height: 703.2 m
Data from the previous 72 hours. | See also: Recent months at Ernabella/Pukatja
Date/Time
CST
Temp
°C
App
Temp
°C
Dew
Point
Rel
Hum
%
Delta-T
°C
Wind Press
QNH
hPa
Press
MSL
hPa
Rain
since 9 am
mm
Dir
 
Spd
km/h
Gust
km/h
Spd
kts
Gust
kts
25/06:30pm 25.0 22.7 5.7 29 10.2 N 7 7 4 4 1015.2 - 0.0
25/06:00pm 27.4 24.7 5.6 25 11.7 NW 9 13 5 7 1014.9 1011.7 0.0
25/05:30pm 28.6 25.9 5.5 23 12.4 NW 9 15 5 8 1014.6 - 0.0
25/05:00pm 29.0 25.7 4.5 21 13.0 W 11 17 6 9 1014.4 - 0.0
25/04:30pm 29.1 25.3 3.9 20 13.2 W 13 20 7 11 1014.4 - 0.0
25/04:00pm 29.2 25.8 3.9 20 13.3 NW 11 26 6 14 1014.3 - 0.0
25/03:30pm 29.0 24.9 4.5 21 13.0 NW 15 22 8 12 1014.4 - 0.0
25/03:00pm 29.2 25.1 4.6 21 13.1 NW 15 24 8 13 1014.5 1011.2 0.0
25/02:30pm 28.6 24.0 5.5 23 12.4 NNW 19 28 10 15 1014.7 - 0.0
25/02:00pm 28.2 23.6 5.7 24 12.1 NNW 19 32 10 17 1014.9 - 0.0
25/01:30pm 28.1 23.0 6.2 25 11.9 N 22 30 12 16 1015.3 - 0.0
25/01:00pm 27.6 22.8 5.8 25 11.7 N 20 30 11 16 1016.0 - 0.0
25/12:30pm 27.3 22.8 6.1 26 11.4 N 19 26 10 14 1016.3 - 0.0
25/12:00pm 26.7 22.3 6.7 28 10.9 N 19 26 10 14 1017.1 1013.8 0.0
25/11:30am 25.2 20.9 6.9 31 9.9 N 19 24 10 13 1017.6 - 0.0
25/11:00am 24.8 21.1 6.5 31 9.8 NNW 15 22 8 12 1017.9 - 0.0
25/10:30am 23.5 19.1 6.7 34 9.0 N 19 26 10 14 1018.1 - 0.0
25/10:00am 23.0 19.8 6.7 35 8.7 N 13 20 7 11 1018.3 - 0.0
25/09:30am 21.5 17.1 6.6 38 7.8 NNE 19 28 10 15 1018.5 - 0.0
25/09:00am 20.8 16.4 6.4 39 7.5 NNE 19 26 10 14 1018.6 1015.4 0.0
25/08:30am 19.5 15.4 6.3 42 6.8 NNE 17 24 9 13 1018.5 - 0.0
25/08:00am 18.4 15.9 6.6 46 6.1 NNE 9 20 5 11 1018.5 - 0.0
25/07:30am 16.5 14.0 6.6 52 5.1 NNE 9 15 5 8 1018.3 - 0.0
25/07:00am 15.7 13.7 6.4 54 4.7 N 6 13 3 7 1018.1 - 0.0
25/06:30am 16.5 13.2 6.3 51 5.2 NNE 13 19 7 10 1017.8 - 0.0
25/06:00am 17.2 13.1 6.4 49 5.5 N 17 24 9 13 1017.6 1014.4 0.0
25/05:30am 16.4 12.8 6.8 53 4.9 N 15 19 8 10 1017.3 - 0.0
25/05:00am 14.9 12.2 7.2 60 3.9 NNE 11 15 6 8 1017.2 - 0.0
25/04:30am 13.8 11.7 6.7 62 3.6 E 7 11 4 6 1017.0 - 0.0
25/04:00am 14.7 12.7 7.0 60 3.9 SE 7 9 4 5 1017.0 - 0.0
25/03:30am 15.2 12.7 6.7 57 4.3 E 9 11 5 6 1016.7 - 0.0
25/03:00am 15.4 13.2 6.4 55 4.5 E 7 11 4 6 1016.8 1013.6 0.0
25/02:30am 15.5 13.3 6.2 54 4.7 E 7 9 4 5 1017.1 - 0.0
25/02:00am 15.8 13.6 6.0 52 4.9 E 7 9 4 5 1017.3 - 0.0
25/01:30am 15.8 12.8 6.0 52 4.9 E 11 13 6 7 1017.3 - 0.0
25/01:00am 16.5 13.5 5.8 49 5.4 E 11 11 6 6 1017.5 - 0.0
25/12:30am 17.7 15.0 5.6 45 6.1 E 9 11 5 6 1017.6 - 0.0
25/12:00am 17.5 14.8 5.8 46 5.9 E 9 11 5 6 1017.8 1014.6 0.0
 
Date/Time
CST
Temp
°C
App
Temp
°C
Dew
Point
Rel
Hum
%
Delta-T
°C
Wind Press
QNH
hPa
Press
MSL
hPa
Rain
since 9 am
mm
Dir
 
Spd
km/h
Gust
km/h
Spd
kts
Gust
kts
24/11:30pm 18.0 15.4 5.9 45 6.1 E 9 11 5 6 1018.2 - 0.0
24/11:00pm 17.5 14.9 6.1 47 5.8 E 9 11 5 6 1018.3 - 0.0
24/10:30pm 17.9 14.9 6.1 46 6.0 E 11 13 6 7 1018.6 - 0.0
24/10:00pm 17.3 15.4 6.5 49 5.5 ENE 6 7 3 4 1018.5 - 0.0
24/09:30pm 18.4 16.1 5.9 44 6.4 E 7 9 4 5 1018.5 - 0.0
24/09:00pm 17.6 15.5 6.5 48 5.7 NNE 7 9 4 5 1018.5 1015.2 0.0
24/08:30pm 18.3 15.6 5.8 44 6.4 ENE 9 9 5 5 1018.0 - 0.0
24/08:00pm 19.1 16.4 5.6 41 6.9 ENE 9 11 5 6 1017.7 - 0.0
24/07:30pm 20.2 17.5 5.8 39 7.4 ENE 9 9 5 5 1017.5 - 0.0
24/07:00pm 21.1 18.4 5.5 36 8.0 E 9 11 5 6 1017.1 - 0.0
24/06:30pm 22.2 19.4 5.2 33 8.8 E 9 11 5 6 1016.8 - 0.0
24/06:00pm 24.5 21.3 5.3 29 10.0 E 11 13 6 7 1016.5 1013.3 0.0
24/05:30pm 25.5 21.5 5.1 27 10.7 ENE 15 24 8 13 1016.2 - 0.0
24/05:00pm 26.0 23.3 5.6 27 10.8 E 9 17 5 9 1016.0 - 0.0
24/04:30pm 26.3 22.4 5.3 26 11.1 NE 15 22 8 12 1015.9 - 0.0
24/04:00pm 26.4 23.7 5.4 26 11.1 NE 9 13 5 7 1015.9 - 0.0
24/03:30pm 26.8 22.0 5.7 26 11.3 ENE 20 24 11 13 1015.9 - 0.0
24/03:00pm 26.3 23.6 5.8 27 10.9 ESE 9 15 5 8 1016.2 1013.0 0.0
24/02:30pm 26.1 22.4 6.2 28 10.7 E 15 20 8 11 1016.2 - 0.0
24/02:00pm 25.8 22.0 5.9 28 10.6 E 15 24 8 13 1016.5 - 0.0
24/01:30pm 25.8 22.1 6.4 29 10.4 NE 15 22 8 12 1016.8 - 0.0
24/01:00pm 25.0 21.9 7.2 32 9.7 NE 13 20 7 11 1017.4 - 0.0
24/12:30pm 24.9 21.5 7.5 33 9.5 E 15 26 8 14 1018.0 - 0.0
24/12:00pm 24.2 20.4 7.4 34 9.1 ENE 17 28 9 15 1018.5 1015.2 0.0
24/11:30am 23.9 20.2 7.9 36 8.7 ENE 17 24 9 13 1019.0 - 0.0
24/11:00am 22.9 18.8 7.8 38 8.2 E 19 24 10 13 1019.1 - 0.0
24/10:30am 22.6 18.2 7.6 38 8.1 ENE 20 28 11 15 1019.4 - 0.0
24/10:00am 21.6 17.8 7.4 40 7.6 E 17 24 9 13 1019.7 - 0.0
24/09:30am 20.9 17.0 7.2 41 7.3 E 17 20 9 11 1019.9 - 0.0
24/09:00am 19.7 16.1 6.8 43 6.7 ENE 15 20 8 11 1019.8 1016.7 0.0
24/08:30am 17.7 15.8 7.7 52 5.3 NE 7 11 4 6 1019.5 - 0.0
24/08:00am 15.5 14.1 8.7 64 3.6 NE 6 9 3 5 1019.2 - 0.0
24/07:30am 12.5 10.3 7.8 73 2.4 NE 9 11 5 6 1018.9 - 0.0
24/07:00am 10.4 9.7 7.1 80 1.6 CALM 0 0 0 0 1018.8 - 0.0
24/06:30am 10.7 10.0 7.0 78 1.8 CALM 0 0 0 0 1018.8 - 0.0
24/06:00am 11.3 10.7 7.4 77 1.9 CALM 0 0 0 0 1018.6 1015.4 0.0
24/05:30am 11.7 11.0 7.0 73 2.3 CALM 0 0 0 0 1018.1 - 0.0
24/05:00am 12.4 11.1 7.7 73 2.4 N 4 6 2 3 1017.9 - 0.0
24/04:30am 12.1 10.7 7.2 72 2.5 N 4 6 2 3 1017.9 - 0.0
24/04:00am 14.0 12.3 7.5 65 3.3 S 6 9 3 5 1017.8 - 0.0
24/03:30am 16.9 14.3 7.8 55 4.8 SE 11 17 6 9 1017.7 - 0.0
24/03:00am 15.5 13.5 7.3 58 4.2 ESE 7 11 4 6 1017.9 1014.7 0.0
24/02:30am 17.1 14.9 8.0 55 4.8 ESE 9 15 5 8 1018.0 - 0.0
24/02:00am 18.0 15.0 7.7 51 5.4 SSE 13 20 7 11 1018.3 - 0.0
24/01:30am 18.5 14.7 7.6 49 5.7 SE 17 22 9 12 1018.3 - 0.0
24/01:00am 18.4 14.9 7.2 48 5.9 SSE 15 20 8 11 1018.6 - 0.0
24/12:30am 16.1 14.9 6.3 52 5.0 S 2 7 1 4 1018.7 - 0.0
24/12:00am 16.8 15.1 6.0 49 5.4 SW 4 7 2 4 1018.8 1015.6 0.0
 
Date/Time
CST
Temp
°C
App
Temp
°C
Dew
Point
Rel
Hum
%
Delta-T
°C
Wind Press
QNH
hPa
Press
MSL
hPa
Rain
since 9 am
mm
Dir
 
Spd
km/h
Gust
km/h
Spd
kts
Gust
kts
23/11:30pm 16.5 14.4 5.8 49 5.4 NW 6 7 3 4 1019.0 - 0.0
23/11:00pm 16.9 14.2 5.5 47 5.7 WNW 9 11 5 6 1019.1 - 0.0
23/10:30pm 18.5 16.1 5.4 42 6.6 W 7 11 4 6 1019.0 - 0.0
23/10:00pm 18.9 16.1 5.0 40 7.0 W 9 13 5 7 1018.8 - 0.0
23/09:30pm 19.5 16.3 5.2 39 7.2 WSW 11 13 6 7 1018.7 - 0.0
23/09:00pm 18.5 16.0 4.7 40 6.9 W 7 11 4 6 1018.5 1015.2 0.0
23/08:30pm 18.9 17.8 5.0 40 7.0 CALM 0 0 0 0 1018.1 - 0.0
23/08:00pm 19.4 18.1 4.3 37 7.5 CALM 0 0 0 0 1017.9 - 0.0
23/07:30pm 21.9 18.5 4.0 31 9.0 SSW 11 15 6 8 1017.5 - 0.0
23/07:00pm 23.1 18.9 3.6 28 9.8 SW 15 19 8 10 1017.2 - 0.0
23/06:30pm 23.9 19.8 4.3 28 10.0 SW 15 19 8 10 1016.7 - 0.0
23/06:00pm 25.4 21.2 5.6 28 10.5 SSW 17 20 9 11 1016.4 1013.2 0.0
23/05:30pm 25.9 22.4 5.5 27 10.8 SSW 13 17 7 9 1016.2 - 0.0
23/05:00pm 26.9 23.3 5.2 25 11.5 SW 13 24 7 13 1016.1 - 0.0
23/04:30pm 27.3 23.3 6.7 27 11.2 SSW 17 24 9 13 1016.0 - 0.0
23/04:00pm 27.5 23.9 6.8 27 11.3 W 15 24 8 13 1016.1 - 0.0
23/03:30pm 27.6 24.9 7.5 28 11.1 SSW 11 20 6 11 1016.1 - 0.0
23/03:00pm 27.5 24.4 7.4 28 11.1 SW 13 22 7 12 1016.2 1013.0 0.0
23/02:30pm 27.5 24.8 7.4 28 11.1 WNW 11 19 6 10 1016.5 - 0.0
23/02:00pm 26.3 24.7 7.8 31 10.2 W 6 11 3 6 1016.8 - 0.0
23/01:30pm 26.2 22.2 9.1 34 9.6 SW 20 28 11 15 1017.3 - 0.0
23/01:00pm 26.7 23.9 8.6 32 10.2 W 13 20 7 11 1017.7 - 0.0
23/12:30pm 25.5 23.7 9.3 36 9.1 N 9 15 5 8 1018.2 - 0.0
23/12:00pm 24.8 23.1 9.9 39 8.4 E 9 15 5 8 1018.8 1015.6 0.0
23/11:30am 23.9 22.3 10.2 42 7.8 ENE 9 13 5 7 1019.2 - 0.0
23/11:00am 23.3 22.3 10.4 44 7.3 ENE 6 13 3 7 1019.6 - 0.0
23/10:30am 22.1 21.0 10.6 48 6.5 ENE 7 13 4 7 1019.9 - 0.0
23/10:00am 21.1 20.2 10.6 51 5.9 E 6 11 3 6 1020.2 - 0.0
23/09:30am 20.1 19.0 10.5 54 5.4 E 7 11 4 6 1020.2 - 0.0
23/09:00am 18.6 17.4 10.2 58 4.6 S 7 13 4 7 1020.4 1017.2 0.0
23/08:30am 17.6 17.8 10.5 63 3.9 CALM 0 0 0 0 1020.3 - 0.0
23/08:00am 15.5 15.8 10.9 74 2.5 CALM 0 6 0 3 1019.8 - 0.0
23/07:30am 12.5 10.8 9.9 84 1.4 SW 9 11 5 6 1019.7 - 0.0
23/07:00am 11.6 10.7 9.2 85 1.3 NW 4 9 2 5 1019.4 - 0.0
23/06:30am 11.0 9.4 8.9 87 1.1 N 7 9 4 5 1019.2 - 0.0
23/06:00am 11.0 9.6 8.9 87 1.1 N 6 7 3 4 1019.1 1015.9 0.0
23/05:30am 11.2 9.6 8.6 84 1.3 ENE 7 9 4 5 1018.9 - 0.0
23/05:00am 12.4 11.0 9.6 83 1.5 E 7 9 4 5 1018.9 - 0.0
23/04:30am 13.5 11.7 9.6 77 2.1 SE 9 15 5 8 1018.7 - 0.0
23/04:00am 14.0 12.7 9.8 76 2.2 E 7 11 4 6 1019.0 - 0.0
23/03:30am 14.8 13.1 10.0 73 2.6 E 9 13 5 7 1019.2 - 0.0
23/03:00am 16.6 15.1 10.5 67 3.4 SE 9 15 5 8 1019.0 1015.8 0.0
23/02:30am 17.2 15.4 10.8 66 3.6 SSE 11 19 6 10 1019.1 - 0.0
23/02:00am 17.3 16.3 10.9 66 3.6 S 7 11 4 6 1019.3 - 0.0
23/01:30am 17.7 16.3 10.8 64 3.8 S 9 15 5 8 1019.6 - 0.0
23/01:00am 18.1 16.3 11.0 63 4.0 S 11 17 6 9 1019.6 - 0.0
23/12:30am 18.3 16.8 10.7 61 4.2 S 9 15 5 8 1019.8 - 0.0
23/12:00am 18.7 16.9 10.8 60 4.4 S 11 20 6 11 1019.8 1016.7 0.0
 
Date/Time
CST
Temp
°C
App
Temp
°C
Dew
Point
Rel
Hum
%
Delta-T
°C
Wind Press
QNH
hPa
Press
MSL
hPa
Rain
since 9 am
mm
Dir
 
Spd
km/h
Gust
km/h
Spd
kts
Gust
kts
22/11:30pm 19.1 17.2 10.6 58 4.8 SSE 11 15 6 8 1020.1 - 0.0
22/11:00pm 19.8 16.4 10.5 55 5.2 SSE 19 24 10 13 1020.2 - 0.0
22/10:30pm 20.2 16.5 10.3 53 5.5 SSE 20 28 11 15 1019.9 - 0.0
22/10:00pm 20.7 17.0 10.2 51 5.9 S 20 28 11 15 1019.8 - 0.0
22/09:30pm 21.6 17.8 9.8 47 6.6 S 20 26 11 14 1019.7 - 0.0
22/09:00pm 21.6 18.0 9.8 47 6.6 S 19 26 10 14 1019.6 1016.4 0.0
22/08:30pm 21.7 18.4 9.6 46 6.7 SSE 17 20 9 11 1019.4 - 0.0
22/08:00pm 22.5 19.1 9.0 42 7.5 S 17 24 9 13 1019.1 - 0.0
22/07:30pm 22.0 19.6 8.5 42 7.4 S 11 17 6 9 1018.8 - 0.0
22/07:00pm 22.7 20.1 7.7 38 8.1 SSW 11 17 6 9 1018.1 - 0.0

Other Formats:

Comma delimited format used in spreadsheet applications
http://www.bom.gov.au/fwo/IDD60801/IDD60801.94474.axf

JavaScript Object Notation format (JSON) in row-major order
http://www.bom.gov.au/fwo/IDD60801/IDD60801.94474.json